sensor_id;sensor_type;location;lat;lon;timestamp;pressure;altitude;pressure_sealevel;temperature;humidity
68137;BME280;54939;50.826;9.030;2023-06-10T00:00:24;98503.03;;;25.95;43.24
68137;BME280;54939;50.826;9.030;2023-06-10T00:00:54;98503.03;;;25.95;43.38
68137;BME280;54939;50.826;9.030;2023-06-10T00:01:25;98501.38;;;25.94;43.38
68137;BME280;54939;50.826;9.030;2023-06-10T00:01:58;98506.00;;;25.94;43.30
68137;BME280;54939;50.826;9.030;2023-06-10T00:02:29;98508.50;;;25.95;43.18
68137;BME280;54939;50.826;9.030;2023-06-10T00:02:59;98496.19;;;25.93;43.26
68137;BME280;54939;50.826;9.030;2023-06-10T00:03:30;98497.56;;;25.95;43.30
68137;BME280;54939;50.826;9.030;2023-06-10T00:04:00;98499.47;;;25.95;43.23
68137;BME280;54939;50.826;9.030;2023-06-10T00:04:30;98498.63;;;25.94;43.07
68137;BME280;54939;50.826;9.030;2023-06-10T00:05:00;98496.72;;;25.95;43.19
68137;BME280;54939;50.826;9.030;2023-06-10T00:05:30;98496.72;;;25.95;43.26
68137;BME280;54939;50.826;9.030;2023-06-10T00:06:01;98500.53;;;25.94;43.12
68137;BME280;54939;50.826;9.030;2023-06-10T00:06:31;98497.56;;;25.95;43.33
68137;BME280;54939;50.826;9.030;2023-06-10T00:07:07;98498.63;;;25.94;43.26
68137;BME280;54939;50.826;9.030;2023-06-10T00:07:38;98499.47;;;25.95;43.15
68137;BME280;54939;50.826;9.030;2023-06-10T00:08:09;98496.72;;;25.95;43.15
68137;BME280;54939;50.826;9.030;2023-06-10T00:08:40;98497.56;;;25.95;43.19
68137;BME280;54939;50.826;9.030;2023-06-10T00:09:10;98499.47;;;25.95;43.44
68137;BME280;54939;50.826;9.030;2023-06-10T00:09:41;98499.47;;;25.95;43.44
68137;BME280;54939;50.826;9.030;2023-06-10T00:10:11;98500.28;;;25.95;43.04
68137;BME280;54939;50.826;9.030;2023-06-10T00:10:41;98499.47;;;25.95;43.32
68137;BME280;54939;50.826;9.030;2023-06-10T00:11:11;98499.47;;;25.95;42.98
68137;BME280;54939;50.826;9.030;2023-06-10T00:11:41;98498.63;;;25.94;43.26
68137;BME280;54939;50.826;9.030;2023-06-10T00:12:12;98495.91;;;25.94;43.20
68137;BME280;54939;50.826;9.030;2023-06-10T00:12:42;98497.81;;;25.94;43.39
68137;BME280;54939;50.826;9.030;2023-06-10T00:13:13;98493.16;;;25.94;43.30
68137;BME280;54939;50.826;9.030;2023-06-10T00:13:44;98492.34;;;25.94;43.06
68137;BME280;54939;50.826;9.030;2023-06-10T00:14:14;98501.38;;;25.94;43.36
68137;BME280;54939;50.826;9.030;2023-06-10T00:14:44;98495.91;;;25.94;43.23
68137;BME280;54939;50.826;9.030;2023-06-10T00:15:15;98495.91;;;25.94;43.16
68137;BME280;54939;50.826;9.030;2023-06-10T00:15:45;98495.06;;;25.94;43.03
68137;BME280;54939;50.826;9.030;2023-06-10T00:16:15;98496.72;;;25.95;43.03
68137;BME280;54939;50.826;9.030;2023-06-10T00:16:47;98495.91;;;25.94;42.92
68137;BME280;54939;50.826;9.030;2023-06-10T00:17:18;98492.63;;;25.92;43.30
68137;BME280;54939;50.826;9.030;2023-06-10T00:17:48;98491.53;;;25.93;43.45
68137;BME280;54939;50.826;9.030;2023-06-10T00:18:18;98488.81;;;25.93;43.42
68137;BME280;54939;50.826;9.030;2023-06-10T00:18:51;98486.06;;;25.93;43.00
68137;BME280;54939;50.826;9.030;2023-06-10T00:19:21;98487.69;;;25.94;43.33
68137;BME280;54939;50.826;9.030;2023-06-10T00:19:55;98489.59;;;25.94;43.31
68137;BME280;54939;50.826;9.030;2023-06-10T00:20:25;98491.53;;;25.93;43.23
68137;BME280;54939;50.826;9.030;2023-06-10T00:20:55;98484.97;;;25.94;43.20
68137;BME280;54939;50.826;9.030;2023-06-10T00:21:27;98489.59;;;25.94;43.22
68137;BME280;54939;50.826;9.030;2023-06-10T00:21:57;98492.63;;;25.92;43.23
68137;BME280;54939;50.826;9.030;2023-06-10T00:22:27;98487.97;;;25.93;43.28
68137;BME280;54939;50.826;9.030;2023-06-10T00:23:00;98489.59;;;25.94;43.24
68137;BME280;54939;50.826;9.030;2023-06-10T00:23:31;98491.53;;;25.93;42.99
68137;BME280;54939;50.826;9.030;2023-06-10T00:24:01;98492.34;;;25.94;43.23
68137;BME280;54939;50.826;9.030;2023-06-10T00:24:35;98497.00;;;25.93;43.18
68137;BME280;54939;50.826;9.030;2023-06-10T00:25:05;98491.53;;;25.93;42.96
68137;BME280;54939;50.826;9.030;2023-06-10T00:25:36;98491.53;;;25.93;42.88
68137;BME280;54939;50.826;9.030;2023-06-10T00:26:06;98491.53;;;25.93;42.98
68137;BME280;54939;50.826;9.030;2023-06-10T00:26:36;98488.81;;;25.93;43.10
68137;BME280;54939;50.826;9.030;2023-06-10T00:27:06;98488.81;;;25.93;43.26
68137;BME280;54939;50.826;9.030;2023-06-10T00:27:36;98493.44;;;25.93;43.01
68137;BME280;54939;50.826;9.030;2023-06-10T00:28:07;98482.75;;;25.91;43.05
68137;BME280;54939;50.826;9.030;2023-06-10T00:28:37;98490.72;;;25.93;43.19
68137;BME280;54939;50.826;9.030;2023-06-10T00:29:07;98493.44;;;25.93;43.20
68137;BME280;54939;50.826;9.030;2023-06-10T00:29:37;98493.44;;;25.93;42.83
68137;BME280;54939;50.826;9.030;2023-06-10T00:30:09;98493.44;;;25.93;43.27
68137;BME280;54939;50.826;9.030;2023-06-10T00:30:39;98488.81;;;25.93;43.05
68137;BME280;54939;50.826;9.030;2023-06-10T00:31:09;98490.72;;;25.93;42.84
68137;BME280;54939;50.826;9.030;2023-06-10T00:31:40;98490.72;;;25.93;42.99
68137;BME280;54939;50.826;9.030;2023-06-10T00:32:10;98487.16;;;25.92;43.06
68137;BME280;54939;50.826;9.030;2023-06-10T00:32:40;98487.16;;;25.92;42.86
68137;BME280;54939;50.826;9.030;2023-06-10T00:33:10;98492.63;;;25.92;43.19
68137;BME280;54939;50.826;9.030;2023-06-10T00:33:41;98487.16;;;25.92;42.97
68137;BME280;54939;50.826;9.030;2023-06-10T00:34:11;98491.53;;;25.93;42.99
68137;BME280;54939;50.826;9.030;2023-06-10T00:34:41;98483.59;;;25.92;42.81
68137;BME280;54939;50.826;9.030;2023-06-10T00:35:11;98489.88;;;25.92;42.90
68137;BME280;54939;50.826;9.030;2023-06-10T00:35:41;98489.88;;;25.92;42.89
68137;BME280;54939;50.826;9.030;2023-06-10T00:36:12;98484.41;;;25.92;42.83
68137;BME280;54939;50.826;9.030;2023-06-10T00:36:42;98486.31;;;25.92;43.19
68137;BME280;54939;50.826;9.030;2023-06-10T00:37:13;98498.09;;;25.92;42.86
68137;BME280;54939;50.826;9.030;2023-06-10T00:37:43;98489.06;;;25.92;43.13
68137;BME280;54939;50.826;9.030;2023-06-10T00:38:14;98483.84;;;25.90;43.26
68137;BME280;54939;50.826;9.030;2023-06-10T00:38:44;98489.31;;;25.90;42.94
68137;BME280;54939;50.826;9.030;2023-06-10T00:39:15;98487.41;;;25.91;43.11
68137;BME280;54939;50.826;9.030;2023-06-10T00:39:45;98485.50;;;25.91;43.16
68137;BME280;54939;50.826;9.030;2023-06-10T00:40:15;98485.50;;;25.91;43.32
68137;BME280;54939;50.826;9.030;2023-06-10T00:40:45;98487.16;;;25.92;43.14
68137;BME280;54939;50.826;9.030;2023-06-10T00:41:15;98489.88;;;25.92;43.07
68137;BME280;54939;50.826;9.030;2023-06-10T00:41:46;98484.66;;;25.91;43.16
68137;BME280;54939;50.826;9.030;2023-06-10T00:42:16;98485.50;;;25.91;43.15
68137;BME280;54939;50.826;9.030;2023-06-10T00:42:46;98486.31;;;25.92;42.90
68137;BME280;54939;50.826;9.030;2023-06-10T00:43:16;98491.78;;;25.92;42.87
68137;BME280;54939;50.826;9.030;2023-06-10T00:43:46;98486.31;;;25.92;42.86
68137;BME280;54939;50.826;9.030;2023-06-10T00:44:17;98488.22;;;25.91;43.14
68137;BME280;54939;50.826;9.030;2023-06-10T00:44:47;98486.31;;;25.92;42.97
68137;BME280;54939;50.826;9.030;2023-06-10T00:45:17;98485.50;;;25.91;43.11
68137;BME280;54939;50.826;9.030;2023-06-10T00:45:47;98490.97;;;25.91;43.06
68137;BME280;54939;50.826;9.030;2023-06-10T00:46:17;98489.88;;;25.92;43.09
68137;BME280;54939;50.826;9.030;2023-06-10T00:46:48;98485.50;;;25.91;42.88
68137;BME280;54939;50.826;9.030;2023-06-10T00:47:21;98489.06;;;25.92;42.98
68137;BME280;54939;50.826;9.030;2023-06-10T00:47:51;98488.47;;;25.89;43.27
68137;BME280;54939;50.826;9.030;2023-06-10T00:48:21;98492.03;;;25.90;43.21
68137;BME280;54939;50.826;9.030;2023-06-10T00:48:52;98486.56;;;25.90;42.84
68137;BME280;54939;50.826;9.030;2023-06-10T00:49:22;98492.03;;;25.90;42.80
68137;BME280;54939;50.826;9.030;2023-06-10T00:49:52;98492.88;;;25.91;43.13
68137;BME280;54939;50.826;9.030;2023-06-10T00:50:23;98487.66;;;25.89;43.00
68137;BME280;54939;50.826;9.030;2023-06-10T00:50:53;98486.00;;;25.88;42.89
68137;BME280;54939;50.826;9.030;2023-06-10T00:51:24;98485.75;;;25.89;43.18
68137;BME280;54939;50.826;9.030;2023-06-10T00:51:55;98493.94;;;25.89;43.12
68137;BME280;54939;50.826;9.030;2023-06-10T00:52:26;98494.78;;;25.90;43.15
68137;BME280;54939;50.826;9.030;2023-06-10T00:52:58;98490.97;;;25.91;43.14
68137;BME280;54939;50.826;9.030;2023-06-10T00:53:28;98497.50;;;25.90;42.76
68137;BME280;54939;50.826;9.030;2023-06-10T00:53:58;98495.59;;;25.91;42.92
68137;BME280;54939;50.826;9.030;2023-06-10T00:54:29;98497.50;;;25.90;42.94
68137;BME280;54939;50.826;9.030;2023-06-10T00:54:59;98493.94;;;25.89;43.13
68137;BME280;54939;50.826;9.030;2023-06-10T00:55:29;98491.22;;;25.89;42.91
68137;BME280;54939;50.826;9.030;2023-06-10T00:56:00;98493.13;;;25.89;43.10
68137;BME280;54939;50.826;9.030;2023-06-10T00:56:30;98493.94;;;25.89;43.17
68137;BME280;54939;50.826;9.030;2023-06-10T00:57:01;98494.78;;;25.90;42.86
68137;BME280;54939;50.826;9.030;2023-06-10T00:57:32;98495.84;;;25.89;42.95
68137;BME280;54939;50.826;9.030;2023-06-10T00:58:03;98497.50;;;25.90;43.16
68137;BME280;54939;50.826;9.030;2023-06-10T00:58:33;98493.94;;;25.89;43.18
68137;BME280;54939;50.826;9.030;2023-06-10T00:59:03;98498.59;;;25.89;42.99
68137;BME280;54939;50.826;9.030;2023-06-10T00:59:34;98489.31;;;25.90;43.11
68137;BME280;54939;50.826;9.030;2023-06-10T01:00:04;98496.69;;;25.89;43.15
68137;BME280;54939;50.826;9.030;2023-06-10T01:00:37;98497.50;;;25.90;43.04
68137;BME280;54939;50.826;9.030;2023-06-10T01:01:07;98494.78;;;25.90;43.02
68137;BME280;54939;50.826;9.030;2023-06-10T01:01:41;98494.78;;;25.90;42.85
68137;BME280;54939;50.826;9.030;2023-06-10T01:02:13;98486.81;;;25.88;43.11
68137;BME280;54939;50.826;9.030;2023-06-10T01:02:43;98495.84;;;25.89;43.02
68137;BME280;54939;50.826;9.030;2023-06-10T01:03:13;98496.69;;;25.89;42.99
68137;BME280;54939;50.826;9.030;2023-06-10T01:03:44;98500.50;;;25.88;42.89
68137;BME280;54939;50.826;9.030;2023-06-10T01:04:15;98493.13;;;25.89;42.94
68137;BME280;54939;50.826;9.030;2023-06-10T01:04:49;98492.28;;;25.88;42.99
68137;BME280;54939;50.826;9.030;2023-06-10T01:05:19;98491.47;;;25.88;43.10
68137;BME280;54939;50.826;9.030;2023-06-10T01:06:14;98497.75;;;25.88;42.92
68137;BME280;54939;50.826;9.030;2023-06-10T01:07:25;98497.75;;;25.88;43.09
68137;BME280;54939;50.826;9.030;2023-06-10T01:08:00;98491.47;;;25.88;43.23
68137;BME280;54939;50.826;9.030;2023-06-10T01:08:33;98491.47;;;25.88;43.27
68137;BME280;54939;50.826;9.030;2023-06-10T01:09:59;98489.81;;;25.87;42.84
68137;BME280;54939;50.826;9.030;2023-06-10T01:10:36;98489.81;;;25.87;43.21
68137;BME280;54939;50.826;9.030;2023-06-10T01:11:08;98492.53;;;25.87;43.17
68137;BME280;54939;50.826;9.030;2023-06-10T01:11:49;98497.19;;;25.86;43.09
68137;BME280;54939;50.826;9.030;2023-06-10T01:12:32;98492.53;;;25.87;43.03
68137;BME280;54939;50.826;9.030;2023-06-10T01:13:07;98493.38;;;25.87;43.10
68137;BME280;54939;50.826;9.030;2023-06-10T01:13:38;98492.53;;;25.87;43.05
68137;BME280;54939;50.826;9.030;2023-06-10T01:14:10;98489.81;;;25.87;43.21
68137;BME280;54939;50.826;9.030;2023-06-10T01:14:41;98495.03;;;25.88;42.81
68137;BME280;54939;50.826;9.030;2023-06-10T01:15:15;98493.13;;;25.89;42.85
68137;BME280;54939;50.826;9.030;2023-06-10T01:15:45;98496.09;;;25.87;43.05
68137;BME280;54939;50.826;9.030;2023-06-10T01:16:15;98492.53;;;25.87;43.25
68137;BME280;54939;50.826;9.030;2023-06-10T01:16:46;98493.38;;;25.87;43.10
68137;BME280;54939;50.826;9.030;2023-06-10T01:17:16;98500.75;;;25.87;43.19
68137;BME280;54939;50.826;9.030;2023-06-10T01:18:31;98497.19;;;25.86;43.02
68137;BME280;54939;50.826;9.030;2023-06-10T01:19:01;98497.19;;;25.86;42.91
68137;BME280;54939;50.826;9.030;2023-06-10T01:19:32;98490.91;;;25.86;43.12
68137;BME280;54939;50.826;9.030;2023-06-10T01:20:04;98498.28;;;25.85;43.14
68137;BME280;54939;50.826;9.030;2023-06-10T01:20:35;98495.56;;;25.85;43.00
68137;BME280;54939;50.826;9.030;2023-06-10T01:21:07;98496.63;;;25.84;43.15
68137;BME280;54939;50.826;9.030;2023-06-10T01:21:37;98501.28;;;25.84;43.06
68137;BME280;54939;50.826;9.030;2023-06-10T01:22:09;98491.41;;;25.83;43.14
68137;BME280;54939;50.826;9.030;2023-06-10T01:22:40;98489.50;;;25.83;42.79
68137;BME280;54939;50.826;9.030;2023-06-10T01:23:10;98500.44;;;25.83;43.17
68137;BME280;54939;50.826;9.030;2023-06-10T01:23:41;98490.34;;;25.84;43.05
68137;BME280;54939;50.826;9.030;2023-06-10T01:24:11;98491.16;;;25.84;43.05
68137;BME280;54939;50.826;9.030;2023-06-10T01:24:41;98501.28;;;25.84;43.13
68137;BME280;54939;50.826;9.030;2023-06-10T01:25:13;98494.72;;;25.85;42.85
68137;BME280;54939;50.826;9.030;2023-06-10T01:25:52;98491.16;;;25.84;42.88
68137;BME280;54939;50.826;9.030;2023-06-10T01:26:26;98495.56;;;25.85;43.10
68137;BME280;54939;50.826;9.030;2023-06-10T01:26:59;98501.03;;;25.85;43.05
68137;BME280;54939;50.826;9.030;2023-06-10T01:27:30;98494.72;;;25.85;43.18
68137;BME280;54939;50.826;9.030;2023-06-10T01:28:38;98500.19;;;25.85;43.01
68137;BME280;54939;50.826;9.030;2023-06-10T01:29:14;98493.66;;;25.86;42.91
68137;BME280;54939;50.826;9.030;2023-06-10T01:29:50;98493.66;;;25.86;43.00
68137;BME280;54939;50.826;9.030;2023-06-10T01:30:23;98497.19;;;25.86;43.09
68137;BME280;54939;50.826;9.030;2023-06-10T01:31:20;98492.81;;;25.85;43.07
68137;BME280;54939;50.826;9.030;2023-06-10T01:32:01;98498.53;;;25.84;43.37
68137;BME280;54939;50.826;9.030;2023-06-10T01:32:34;98497.47;;;25.85;43.05
68137;BME280;54939;50.826;9.030;2023-06-10T01:33:07;98501.28;;;25.84;43.03
68137;BME280;54939;50.826;9.030;2023-06-10T01:33:41;98500.19;;;25.85;42.93
68137;BME280;54939;50.826;9.030;2023-06-10T01:34:13;98495.81;;;25.84;43.19
68137;BME280;54939;50.826;9.030;2023-06-10T01:34:44;98490.84;;;25.81;42.82
68137;BME280;54939;50.826;9.030;2023-06-10T01:35:14;98501.28;;;25.84;42.88
68137;BME280;54939;50.826;9.030;2023-06-10T01:35:45;98491.41;;;25.83;43.06
68137;BME280;54939;50.826;9.030;2023-06-10T01:36:17;98499.38;;;25.84;43.16
68137;BME280;54939;50.826;9.030;2023-06-10T01:36:48;98499.63;;;25.83;42.87
68137;BME280;54939;50.826;9.030;2023-06-10T01:37:19;98502.09;;;25.84;43.07
68137;BME280;54939;50.826;9.030;2023-06-10T01:37:50;98497.72;;;25.83;42.86
68137;BME280;54939;50.826;9.030;2023-06-10T01:38:22;98497.72;;;25.83;43.18
68137;BME280;54939;50.826;9.030;2023-06-10T01:38:54;98494.97;;;25.83;43.23
68137;BME280;54939;50.826;9.030;2023-06-10T01:39:25;98500.44;;;25.83;42.95
68137;BME280;54939;50.826;9.030;2023-06-10T01:39:57;98505.91;;;25.83;43.26
68137;BME280;54939;50.826;9.030;2023-06-10T01:40:28;98509.47;;;25.84;43.23
68137;BME280;54939;50.826;9.030;2023-06-10T01:40:59;98505.09;;;25.83;43.10
68137;BME280;54939;50.826;9.030;2023-06-10T01:41:29;98504.00;;;25.84;43.09
68137;BME280;54939;50.826;9.030;2023-06-10T01:42:00;98497.72;;;25.83;43.21
68137;BME280;54939;50.826;9.030;2023-06-10T01:42:32;98497.13;;;25.81;42.95
68137;BME280;54939;50.826;9.030;2023-06-10T01:43:03;98501.28;;;25.84;43.19
68137;BME280;54939;50.826;9.030;2023-06-10T01:43:33;98506.75;;;25.84;43.10
68137;BME280;54939;50.826;9.030;2023-06-10T01:44:04;98500.44;;;25.83;43.16
68137;BME280;54939;50.826;9.030;2023-06-10T01:44:34;98497.72;;;25.83;43.05
68137;BME280;54939;50.826;9.030;2023-06-10T01:45:05;98499.63;;;25.83;43.17
68137;BME280;54939;50.826;9.030;2023-06-10T01:45:35;98503.19;;;25.83;43.15
68137;BME280;54939;50.826;9.030;2023-06-10T01:46:06;98500.44;;;25.83;42.80
68137;BME280;54939;50.826;9.030;2023-06-10T01:46:36;98505.91;;;25.83;42.97
68137;BME280;54939;50.826;9.030;2023-06-10T01:47:06;98504.25;;;25.82;42.85
68137;BME280;54939;50.826;9.030;2023-06-10T01:47:36;98507.00;;;25.82;42.92
68137;BME280;54939;50.826;9.030;2023-06-10T01:48:07;98508.66;;;25.83;43.17
68137;BME280;54939;50.826;9.030;2023-06-10T01:48:37;98509.47;;;25.84;43.21
68137;BME280;54939;50.826;9.030;2023-06-10T01:49:08;98505.09;;;25.83;43.09
68137;BME280;54939;50.826;9.030;2023-06-10T01:49:38;98503.44;;;25.82;43.25
68137;BME280;54939;50.826;9.030;2023-06-10T01:50:08;98500.69;;;25.82;43.21
68137;BME280;54939;50.826;9.030;2023-06-10T01:50:38;98504.25;;;25.82;42.71
68137;BME280;54939;50.826;9.030;2023-06-10T01:51:09;98508.06;;;25.81;42.79
68137;BME280;54939;50.826;9.030;2023-06-10T01:51:39;98506.16;;;25.82;42.86
68137;BME280;54939;50.826;9.030;2023-06-10T01:52:09;98503.44;;;25.82;42.84
68137;BME280;54939;50.826;9.030;2023-06-10T01:52:39;98505.34;;;25.81;42.85
68137;BME280;54939;50.826;9.030;2023-06-10T01:53:10;98503.44;;;25.82;43.15
68137;BME280;54939;50.826;9.030;2023-06-10T01:53:40;98505.34;;;25.81;43.13
68137;BME280;54939;50.826;9.030;2023-06-10T01:54:10;98499.03;;;25.81;43.07
68137;BME280;54939;50.826;9.030;2023-06-10T01:54:40;98501.78;;;25.81;43.17
68137;BME280;54939;50.826;9.030;2023-06-10T01:55:10;98497.97;;;25.82;43.09
68137;BME280;54939;50.826;9.030;2023-06-10T01:55:40;98500.69;;;25.82;43.12
68137;BME280;54939;50.826;9.030;2023-06-10T01:56:11;98500.69;;;25.82;43.15
68137;BME280;54939;50.826;9.030;2023-06-10T01:56:46;98509.72;;;25.82;43.02
68137;BME280;54939;50.826;9.030;2023-06-10T01:57:16;98498.78;;;25.82;43.14
68137;BME280;54939;50.826;9.030;2023-06-10T01:57:47;98505.34;;;25.81;42.92
68137;BME280;54939;50.826;9.030;2023-06-10T01:58:17;98507.00;;;25.82;42.80
68137;BME280;54939;50.826;9.030;2023-06-10T01:58:47;98510.81;;;25.81;43.10
68137;BME280;54939;50.826;9.030;2023-06-10T01:59:17;98501.78;;;25.81;43.01
68137;BME280;54939;50.826;9.030;2023-06-10T01:59:47;98504.50;;;25.81;42.87
68137;BME280;54939;50.826;9.030;2023-06-10T02:00:17;98509.72;;;25.82;43.05
68137;BME280;54939;50.826;9.030;2023-06-10T02:00:48;98511.63;;;25.82;43.03
68137;BME280;54939;50.826;9.030;2023-06-10T02:01:18;98513.53;;;25.81;42.80
68137;BME280;54939;50.826;9.030;2023-06-10T02:01:48;98507.25;;;25.81;42.98
68137;BME280;54939;50.826;9.030;2023-06-10T02:02:18;98516.28;;;25.81;42.77
68137;BME280;54939;50.826;9.030;2023-06-10T02:02:48;98507.25;;;25.81;42.81
68137;BME280;54939;50.826;9.030;2023-06-10T02:03:19;98508.91;;;25.82;43.15
68137;BME280;54939;50.826;9.030;2023-06-10T02:03:49;98510.81;;;25.81;43.08
68137;BME280;54939;50.826;9.030;2023-06-10T02:04:19;98504.50;;;25.81;43.10
68137;BME280;54939;50.826;9.030;2023-06-10T02:04:49;98508.06;;;25.81;43.17
68137;BME280;54939;50.826;9.030;2023-06-10T02:05:19;98512.72;;;25.81;42.92
68137;BME280;54939;50.826;9.030;2023-06-10T02:05:50;98505.59;;;25.80;42.71
68137;BME280;54939;50.826;9.030;2023-06-10T02:06:20;98506.41;;;25.80;42.80
68137;BME280;54939;50.826;9.030;2023-06-10T02:06:50;98507.25;;;25.81;42.90
68137;BME280;54939;50.826;9.030;2023-06-10T02:07:21;98511.06;;;25.80;43.10
68137;BME280;54939;50.826;9.030;2023-06-10T02:07:51;98513.78;;;25.80;42.74
68137;BME280;54939;50.826;9.030;2023-06-10T02:08:21;98509.44;;;25.79;42.81
68137;BME280;54939;50.826;9.030;2023-06-10T02:08:52;98511.06;;;25.80;42.83
68137;BME280;54939;50.826;9.030;2023-06-10T02:09:22;98510.22;;;25.79;43.05
68137;BME280;54939;50.826;9.030;2023-06-10T02:09:52;98515.69;;;25.79;42.67
68137;BME280;54939;50.826;9.030;2023-06-10T02:10:23;98516.53;;;25.80;43.05
68137;BME280;54939;50.826;9.030;2023-06-10T02:10:53;98517.66;;;25.79;43.15
68137;BME280;54939;50.826;9.030;2023-06-10T02:11:23;98525.00;;;25.78;42.92
68137;BME280;54939;50.826;9.030;2023-06-10T02:11:53;98511.34;;;25.78;42.79
68137;BME280;54939;50.826;9.030;2023-06-10T02:12:23;98517.66;;;25.79;43.01
68137;BME280;54939;50.826;9.030;2023-06-10T02:12:54;98522.28;;;25.78;42.85
68137;BME280;54939;50.826;9.030;2023-06-10T02:13:25;98515.97;;;25.78;42.99
68137;BME280;54939;50.826;9.030;2023-06-10T02:13:55;98515.16;;;25.77;42.82
68137;BME280;54939;50.826;9.030;2023-06-10T02:14:25;98515.97;;;25.78;42.64
68137;BME280;54939;50.826;9.030;2023-06-10T02:14:55;98516.81;;;25.78;42.91
68137;BME280;54939;50.826;9.030;2023-06-10T02:15:25;98521.44;;;25.78;42.77
68137;BME280;54939;50.826;9.030;2023-06-10T02:15:56;98520.38;;;25.79;42.83
68137;BME280;54939;50.826;9.030;2023-06-10T02:16:26;98515.16;;;25.77;43.02
68137;BME280;54939;50.826;9.030;2023-06-10T02:16:57;98518.72;;;25.78;42.93
68137;BME280;54939;50.826;9.030;2023-06-10T02:17:27;98517.88;;;25.77;42.78
68137;BME280;54939;50.826;9.030;2023-06-10T02:17:58;98518.72;;;25.78;42.88
68137;BME280;54939;50.826;9.030;2023-06-10T02:18:29;98517.88;;;25.77;43.05
68137;BME280;54939;50.826;9.030;2023-06-10T02:18:59;98523.34;;;25.77;43.11
68137;BME280;54939;50.826;9.030;2023-06-10T02:19:30;98523.34;;;25.77;43.18
68137;BME280;54939;50.826;9.030;2023-06-10T02:20:00;98523.34;;;25.77;43.03
68137;BME280;54939;50.826;9.030;2023-06-10T02:20:37;98515.16;;;25.77;43.13
68137;BME280;54939;50.826;9.030;2023-06-10T02:21:07;98517.88;;;25.77;43.07
68137;BME280;54939;50.826;9.030;2023-06-10T02:21:37;98523.34;;;25.77;43.12
68137;BME280;54939;50.826;9.030;2023-06-10T02:22:08;98522.53;;;25.77;43.19
68137;BME280;54939;50.826;9.030;2023-06-10T02:22:38;98523.34;;;25.77;43.13
68137;BME280;54939;50.826;9.030;2023-06-10T02:23:08;98515.16;;;25.77;42.74
68137;BME280;54939;50.826;9.030;2023-06-10T02:23:38;98518.72;;;25.78;43.01
68137;BME280;54939;50.826;9.030;2023-06-10T02:24:09;98524.19;;;25.78;42.86
68137;BME280;54939;50.826;9.030;2023-06-10T02:24:39;98522.53;;;25.77;42.80
68137;BME280;54939;50.826;9.030;2023-06-10T02:25:09;98528.00;;;25.77;43.03
68137;BME280;54939;50.826;9.030;2023-06-10T02:25:40;98520.63;;;25.77;42.82
68137;BME280;54939;50.826;9.030;2023-06-10T02:26:10;98522.53;;;25.77;42.99
68137;BME280;54939;50.826;9.030;2023-06-10T02:26:41;98519.78;;;25.77;43.10
68137;BME280;54939;50.826;9.030;2023-06-10T02:27:11;98521.69;;;25.76;42.82
68137;BME280;54939;50.826;9.030;2023-06-10T02:27:41;98523.34;;;25.77;42.85
68137;BME280;54939;50.826;9.030;2023-06-10T02:28:11;98518.72;;;25.78;43.03
68137;BME280;54939;50.826;9.030;2023-06-10T02:28:42;98523.34;;;25.77;42.92
68137;BME280;54939;50.826;9.030;2023-06-10T02:29:12;98525.00;;;25.78;43.07
68137;BME280;54939;50.826;9.030;2023-06-10T02:29:42;98519.78;;;25.77;42.95
68137;BME280;54939;50.826;9.030;2023-06-10T02:30:13;98518.97;;;25.76;43.07
68137;BME280;54939;50.826;9.030;2023-06-10T02:30:43;98520.88;;;25.76;42.79
68137;BME280;54939;50.826;9.030;2023-06-10T02:31:14;98516.22;;;25.76;43.02
68137;BME280;54939;50.826;9.030;2023-06-10T02:31:44;98518.97;;;25.76;43.08
68137;BME280;54939;50.826;9.030;2023-06-10T02:32:14;98523.59;;;25.76;42.90
68137;BME280;54939;50.826;9.030;2023-06-10T02:32:45;98518.97;;;25.76;42.82
68137;BME280;54939;50.826;9.030;2023-06-10T02:33:17;98526.34;;;25.76;43.17
68137;BME280;54939;50.826;9.030;2023-06-10T02:33:48;98525.25;;;25.77;43.12
68137;BME280;54939;50.826;9.030;2023-06-10T02:34:18;98523.59;;;25.76;43.17
68137;BME280;54939;50.826;9.030;2023-06-10T02:34:48;98518.13;;;25.76;43.12
68137;BME280;54939;50.826;9.030;2023-06-10T02:35:22;98524.69;;;25.75;43.23
68137;BME280;54939;50.826;9.030;2023-06-10T02:35:54;98524.69;;;25.75;42.90
68137;BME280;54939;50.826;9.030;2023-06-10T02:36:25;98525.50;;;25.75;42.79
68137;BME280;54939;50.826;9.030;2023-06-10T02:36:58;98530.97;;;25.75;42.84
68137;BME280;54939;50.826;9.030;2023-06-10T02:37:28;98525.75;;;25.74;42.88
68137;BME280;54939;50.826;9.030;2023-06-10T02:37:58;98523.84;;;25.74;43.11
68137;BME280;54939;50.826;9.030;2023-06-10T02:38:28;98528.50;;;25.74;42.99
68137;BME280;54939;50.826;9.030;2023-06-10T02:38:58;98526.59;;;25.74;43.16
68137;BME280;54939;50.826;9.030;2023-06-10T02:39:28;98518.38;;;25.74;42.97
68137;BME280;54939;50.826;9.030;2023-06-10T02:39:59;98525.50;;;25.75;43.10
68137;BME280;54939;50.826;9.030;2023-06-10T02:40:29;98526.34;;;25.76;42.86
68137;BME280;54939;50.826;9.030;2023-06-10T02:40:59;98525.50;;;25.75;43.02
68137;BME280;54939;50.826;9.030;2023-06-10T02:41:29;98527.41;;;25.75;43.01
68137;BME280;54939;50.826;9.030;2023-06-10T02:42:00;98525.50;;;25.75;42.89
68137;BME280;54939;50.826;9.030;2023-06-10T02:42:30;98529.31;;;25.74;43.16
68137;BME280;54939;50.826;9.030;2023-06-10T02:43:00;98524.69;;;25.75;42.93
68137;BME280;54939;50.826;9.030;2023-06-10T02:43:30;98530.97;;;25.75;43.04
68137;BME280;54939;50.826;9.030;2023-06-10T02:44:00;98528.25;;;25.75;43.09
68137;BME280;54939;50.826;9.030;2023-06-10T02:44:31;98526.59;;;25.74;42.99
68137;BME280;54939;50.826;9.030;2023-06-10T02:45:01;98524.69;;;25.75;42.83
68137;BME280;54939;50.826;9.030;2023-06-10T02:45:31;98523.84;;;25.74;43.10
68137;BME280;54939;50.826;9.030;2023-06-10T02:46:01;98532.88;;;25.75;43.04
68137;BME280;54939;50.826;9.030;2023-06-10T02:46:31;98533.72;;;25.75;42.78
68137;BME280;54939;50.826;9.030;2023-06-10T02:47:02;98531.81;;;25.76;42.83
68137;BME280;54939;50.826;9.030;2023-06-10T02:47:32;98527.41;;;25.75;43.04